Time;durP1;ratioP1;P1;durP2;ratioP2;P2;SDS_P1;SDS_P2;PMS_P1;PMS_P2;Temp;Humidity;BMP_temperature;BMP_pressure;BME280_temperature;BME280_humidity;BME280_pressure;Samples;Min_cycle;Max_cycle;Signal;HPM_P1;HPM_P2
2023/02/13 00:01:03;;;;;;;27.02;15.60;;;5.60;89.10;;;;;;5092707;28;20220;-70
2023/02/13 00:03:31;;;;;;;23.77;16.10;;;5.60;89.20;;;;;;5092462;28;20647;-72
2023/02/13 00:05:58;;;;;;;25.02;15.50;;;5.60;89.00;;;;;;5092526;28;20242;-71
2023/02/13 00:08:30;;;;;;;24.35;15.27;;;5.60;89.20;;;;;;5091720;28;20234;-72
2023/02/13 00:10:59;;;;;;;22.83;14.00;;;5.60;89.50;;;;;;5092429;28;20225;-71
2023/02/13 00:13:27;;;;;;;24.60;15.32;;;5.60;89.50;;;;;;5092609;28;20204;-75
2023/02/13 00:15:59;;;;;;;28.75;16.38;;;5.70;89.00;;;;;;5093000;28;20262;-70
2023/02/13 00:18:26;;;;;;;20.83;13.43;;;5.60;88.80;;;;;;5093752;28;20608;-71
2023/02/13 00:21:01;;;;;;;26.80;15.00;;;5.60;89.10;;;;;;5073880;28;20315;-72
2023/02/13 00:23:31;;;;;;;24.70;15.15;;;5.70;88.40;;;;;;5075317;28;20528;-71
2023/02/13 00:26:00;;;;;;;24.52;14.80;;;5.60;88.00;;;;;;5114121;28;20188;-70
2023/02/13 00:28:28;;;;;;;24.88;14.32;;;5.50;88.70;;;;;;5113644;28;20232;-72
2023/02/13 00:31:02;;;;;;;25.88;14.27;;;5.40;89.30;;;;;;5072958;28;20268;-70
2023/02/13 00:33:32;;;;;;;23.88;14.23;;;5.40;90.00;;;;;;5074876;28;20527;-70
2023/02/13 00:36:04;;;;;;;19.52;13.93;;;5.40;89.90;;;;;;5113552;28;20192;-71
2023/02/13 00:38:32;;;;;;;24.55;14.10;;;5.40;89.30;;;;;;5113245;28;20534;-71
2023/02/13 00:41:01;;;;;;;22.00;13.48;;;5.40;88.70;;;;;;5093288;28;20652;-70
2023/02/13 00:43:42;;;;;;;21.75;13.23;;;5.40;89.00;;;;;;5094162;28;20204;-71
2023/02/13 00:46:10;;;;;;;23.65;15.05;;;5.40;88.40;;;;;;5073038;28;20529;-71
2023/02/13 00:48:37;;;;;;;23.55;14.88;;;5.30;88.10;;;;;;5078177;28;20179;-70
2023/02/13 00:51:05;;;;;;;25.38;14.40;;;5.30;88.40;;;;;;5113396;28;20212;-71
2023/02/13 00:53:34;;;;;;;19.20;12.88;;;5.10;89.10;;;;;;5110435;28;20176;-71
2023/02/13 00:56:04;;;;;;;23.33;13.60;;;5.10;89.70;;;;;;5093255;28;20582;-70
2023/02/13 00:58:32;;;;;;;22.83;13.13;;;5.00;90.10;;;;;;5094533;28;20197;-71
2023/02/13 01:01:04;;;;;;;22.15;14.27;;;4.90;90.30;;;;;;5113202;28;20232;-70
2023/02/13 01:03:31;;;;;;;28.75;15.00;;;4.90;90.70;;;;;;5110541;28;20192;-70
2023/02/13 01:05:59;;;;;;;23.10;13.05;;;4.80;90.80;;;;;;5092875;28;20247;-70
2023/02/13 01:08:28;;;;;;;25.17;14.73;;;4.90;91.20;;;;;;5093876;28;20651;-70
2023/02/13 01:10:56;;;;;;;21.92;13.50;;;4.90;91.10;;;;;;5113331;28;20527;-71
2023/02/13 01:13:26;;;;;;;23.85;14.15;;;4.90;91.00;;;;;;5112215;28;20188;-72
2023/02/13 01:15:53;;;;;;;22.70;13.60;;;4.90;90.90;;;;;;5092688;28;20718;-70
2023/02/13 01:18:21;;;;;;;22.50;14.00;;;4.90;91.00;;;;;;5092643;28;20193;-70
2023/02/13 01:20:57;;;;;;;22.25;14.68;;;4.90;90.80;;;;;;5112378;28;20250;-70
2023/02/13 01:23:25;;;;;;;23.40;14.70;;;5.00;90.80;;;;;;5111048;28;20215;-71
2023/02/13 01:25:54;;;;;;;22.13;13.55;;;5.00;90.90;;;;;;5072386;28;20219;-70
2023/02/13 01:28:21;;;;;;;26.02;13.05;;;5.00;90.50;;;;;;5072488;28;20194;-72
2023/02/13 01:30:55;;;;;;;27.77;13.23;;;5.10;90.20;;;;;;5072333;28;20613;-71
2023/02/13 01:33:23;;;;;;;19.88;12.88;;;5.10;90.10;;;;;;5073585;28;20679;-71
2023/02/13 01:35:52;;;;;;;24.55;13.77;;;5.10;90.10;;;;;;5112992;28;20554;-70
2023/02/13 01:38:19;;;;;;;23.02;15.20;;;5.10;90.00;;;;;;5112796;28;20192;-70
2023/02/13 01:40:51;;;;;;;26.02;15.15;;;5.10;90.00;;;;;;5111838;28;20195;-71
2023/02/13 01:43:22;;;;;;;27.15;15.63;;;5.10;90.10;;;;;;5112298;28;20275;-72
2023/02/13 01:45:52;;;;;;;22.05;14.40;;;5.10;89.80;;;;;;5072199;28;20231;-70
2023/02/13 01:48:27;;;;;;;24.13;15.65;;;5.10;90.00;;;;;;5071820;28;20197;-70
2023/02/13 01:51:05;;;;;;;35.00;18.10;;;5.10;89.80;;;;;;5071940;28;20538;-70
2023/02/13 01:53:38;;;;;;;31.33;17.73;;;5.10;89.70;;;;;;5074875;28;20277;-71
2023/02/13 01:56:11;;;;;;;30.13;18.20;;;5.10;89.70;;;;;;5112154;28;20192;-70
2023/02/13 01:58:42;;;;;;;28.20;15.13;;;5.10;89.60;;;;;;5110593;28;20184;-71
2023/02/13 02:01:10;;;;;;;28.40;18.38;;;5.10;89.60;;;;;;5091722;28;20228;-70
2023/02/13 02:03:42;;;;;;;26.55;14.93;;;5.20;88.60;;;;;;5092291;28;20189;-71
2023/02/13 02:06:18;;;;;;;24.05;14.00;;;5.20;88.60;;;;;;5107478;28;20192;-70
2023/02/13 02:08:49;;;;;;;23.95;14.35;;;5.20;88.60;;;;;;5092756;28;20192;-72
2023/02/13 02:11:28;;;;;;;24.70;13.63;;;5.20;88.50;;;;;;5112198;28;20212;-71
2023/02/13 02:13:58;;;;;;;23.00;13.68;;;5.20;88.50;;;;;;5109660;28;20191;-70
2023/02/13 02:16:27;;;;;;;24.17;12.93;;;5.20;88.10;;;;;;5091718;28;20204;-71
2023/02/13 02:18:56;;;;;;;23.00;13.80;;;5.30;88.00;;;;;;5092841;28;20192;-71
2023/02/13 02:21:44;;;;;;;22.75;13.98;;;5.20;87.70;;;;;;5112280;28;20195;-71
2023/02/13 02:24:33;;;;;;;24.75;15.27;;;5.20;87.50;;;;;;5109700;28;20188;-70
2023/02/13 02:27:26;;;;;;;25.02;14.40;;;5.20;87.00;;;;;;5111594;28;20260;-70
2023/02/13 02:30:21;;;;;;;26.73;15.10;;;5.20;87.50;;;;;;5108001;28;20662;-70
2023/02/13 02:32:57;;;;;;;24.65;14.48;;;5.10;87.50;;;;;;5091461;28;20291;-70
2023/02/13 02:35:34;;;;;;;22.90;15.30;;;5.00;87.40;;;;;;5108715;28;20184;-71
2023/02/13 02:38:22;;;;;;;24.48;13.82;;;4.90;88.20;;;;;;5112123;28;20677;-70
2023/02/13 02:41:01;;;;;;;23.65;13.45;;;4.90;88.60;;;;;;5111193;28;20194;-71
2023/02/13 02:43:44;;;;;;;24.35;15.15;;;5.00;88.80;;;;;;5112366;28;20274;-70
2023/02/13 02:46:17;;;;;;;23.98;14.90;;;4.90;88.40;;;;;;5071579;28;20201;-71
2023/02/13 02:51:50;;;;;;;20.92;14.13;;;4.70;90.20;;;;;;5080197;28;20558;-70
2023/02/13 02:57:14;;;;;;;24.45;14.50;;;4.70;90.20;;;;;;5091546;28;20308;-70
2023/02/13 03:08:07;;;;;;;23.17;14.23;;;4.80;89.80;;;;;;5115740;28;20187;-71
2023/02/13 03:13:40;;;;;;;27.40;15.30;;;4.60;90.20;;;;;;5095267;28;20262;-72
2023/02/13 03:24:53;;;;;;;25.75;15.13;;;4.50;90.80;;;;;;5115454;28;20265;-71
2023/02/13 03:30:24;;;;;;;28.67;15.13;;;4.60;90.60;;;;;;5098283;28;20687;-70
2023/02/13 03:33:02;;;;;;;28.48;15.07;;;4.50;90.70;;;;;;5114894;28;20235;-71
2023/02/13 03:38:52;;;;;;;21.90;12.55;;;4.60;90.40;;;;;;5032010;28;20199;-70
2023/02/13 03:41:25;;;;;;;23.33;14.40;;;4.60;90.40;;;;;;5031419;28;20669;-70
2023/02/13 03:44:06;;;;;;;20.23;13.55;;;4.60;90.50;;;;;;5055436;28;20616;-70
2023/02/13 03:46:36;;;;;;;26.05;14.32;;;4.70;90.60;;;;;;5102200;28;20253;-70
2023/02/13 03:51:59;;;;;;;21.95;14.32;;;4.70;90.20;;;;;;5093901;28;20235;-70
2023/02/13 04:00:12;;;;;;;31.98;13.73;;;4.60;90.40;;;;;;5103756;28;20204;-70
2023/02/13 04:02:48;;;;;;;29.40;14.88;;;4.60;90.80;;;;;;5114459;27;20192;-70
2023/02/13 04:05:22;;;;;;;25.25;15.10;;;4.60;90.50;;;;;;5103585;28;20234;-70
2023/02/13 04:07:51;;;;;;;24.65;14.02;;;4.60;90.70;;;;;;5094030;28;20254;-70
2023/02/13 04:10:22;;;;;;;27.65;15.65;;;4.50;90.70;;;;;;5101936;28;20192;-70
2023/02/13 04:12:59;;;;;;;28.65;14.55;;;4.50;90.70;;;;;;5093797;28;20237;-70
2023/02/13 04:15:30;;;;;;;25.13;14.30;;;4.50;90.70;;;;;;5103261;28;20180;-71
2023/02/13 04:18:09;;;;;;;23.17;13.98;;;4.50;90.30;;;;;;5114098;28;20203;-71
2023/02/13 04:20:36;;;;;;;27.52;14.80;;;4.50;90.30;;;;;;5105038;28;20180;-71
2023/02/13 04:23:08;;;;;;;26.73;14.43;;;4.40;90.20;;;;;;5114116;28;20192;-70
2023/02/13 04:25:39;;;;;;;28.70;15.10;;;4.40;90.60;;;;;;5102075;28;20595;-70
2023/02/13 04:28:17;;;;;;;26.52;15.32;;;4.40;90.80;;;;;;5093565;28;20231;-70
2023/02/13 04:30:46;;;;;;;23.17;13.05;;;4.40;91.00;;;;;;5100355;28;20181;-70
2023/02/13 04:33:14;;;;;;;21.92;14.13;;;4.40;90.90;;;;;;5093308;28;20278;-70
2023/02/13 04:35:42;;;;;;;25.67;12.70;;;4.40;90.70;;;;;;5104032;28;20536;-70
2023/02/13 04:38:09;;;;;;;23.40;13.38;;;4.30;91.00;;;;;;5113730;28;20619;-70
2023/02/13 04:40:42;;;;;;;25.67;13.32;;;4.30;91.20;;;;;;5111628;28;20206;-70
2023/02/13 04:43:09;;;;;;;25.88;14.40;;;4.30;91.10;;;;;;5110554;28;20181;-70
2023/02/13 04:45:36;;;;;;;22.08;12.93;;;4.30;90.80;;;;;;5093388;28;20192;-70
2023/02/13 04:48:04;;;;;;;26.25;13.80;;;4.30;90.80;;;;;;5094142;28;20189;-70
2023/02/13 04:50:37;;;;;;;26.52;15.30;;;4.30;91.10;;;;;;5113092;28;20192;-70
2023/02/13 04:53:09;;;;;;;22.27;14.05;;;4.20;91.40;;;;;;5111805;28;20215;-70
2023/02/13 04:55:38;;;;;;;26.33;14.35;;;4.20;91.40;;;;;;5093089;28;20551;-71
2023/02/13 04:58:07;;;;;;;22.95;14.13;;;4.10;91.20;;;;;;5103118;28;20184;-70
2023/02/13 05:00:36;;;;;;;24.30;14.15;;;4.00;91.50;;;;;;5111760;28;20715;-70
2023/02/13 05:03:08;;;;;;;27.80;15.52;;;4.00;92.40;;;;;;5113580;28;20603;-70
2023/02/13 05:05:37;;;;;;;26.63;14.25;;;4.00;92.00;;;;;;5106965;28;20203;-70
2023/02/13 05:08:07;;;;;;;30.63;15.00;;;4.00;92.20;;;;;;5092738;28;20718;-71
2023/02/13 05:10:35;;;;;;;23.55;14.50;;;3.80;92.50;;;;;;5098309;28;20238;-70
2023/02/13 05:13:09;;;;;;;29.45;14.13;;;3.80;92.60;;;;;;5112952;28;20580;-70
2023/02/13 05:15:36;;;;;;;28.10;14.93;;;3.80;92.40;;;;;;5106898;28;20260;-69
2023/02/13 05:18:04;;;;;;;26.52;13.75;;;3.80;92.50;;;;;;5092760;28;20224;-70
2023/02/13 05:20:34;;;;;;;21.20;13.00;;;3.80;92.50;;;;;;5097156;28;20180;-70
2023/02/13 05:23:23;;;;;;;20.23;13.00;;;3.80;92.30;;;;;;5112097;28;20189;-70
2023/02/13 05:25:50;;;;;;;25.52;13.70;;;3.80;92.10;;;;;;5104631;28;20321;-70
2023/02/13 05:31:06;;;;;;;22.20;12.65;;;3.70;92.50;;;;;;5101059;28;20195;-69
2023/02/13 05:33:35;;;;;;;23.90;13.35;;;3.70;92.50;;;;;;5112630;28;20364;-69
2023/02/13 05:36:02;;;;;;;27.45;14.30;;;3.70;92.50;;;;;;5103618;28;20195;-70
2023/02/13 05:38:30;;;;;;;23.15;12.45;;;3.70;92.30;;;;;;5092397;28;20189;-70
2023/02/13 05:41:08;;;;;;;20.17;12.05;;;3.70;92.30;;;;;;5099303;28;20233;-70
2023/02/13 05:43:37;;;;;;;22.40;12.95;;;3.80;92.20;;;;;;5112472;28;20192;-70
2023/02/13 05:46:09;;;;;;;27.05;12.23;;;3.80;92.20;;;;;;5102398;28;20189;-70
2023/02/13 05:48:38;;;;;;;24.00;12.93;;;3.60;92.50;;;;;;5092198;28;20246;-70
2023/02/13 05:51:06;;;;;;;24.55;13.70;;;3.50;93.00;;;;;;5099900;28;20195;-70
2023/02/13 05:53:34;;;;;;;24.48;12.73;;;3.50;93.40;;;;;;5112270;28;20235;-70
2023/02/13 05:56:02;;;;;;;22.95;13.60;;;3.50;92.90;;;;;;5107734;28;20180;-71
2023/02/13 05:58:30;;;;;;;22.08;13.35;;;3.50;93.40;;;;;;5112688;28;20188;-70
2023/02/13 06:01:05;;;;;;;22.63;14.25;;;3.50;92.90;;;;;;5100567;28;20216;-70
2023/02/13 06:03:34;;;;;;;18.77;11.40;;;3.50;93.00;;;;;;5091721;28;20283;-70
2023/02/13 06:06:07;;;;;;;23.75;12.75;;;3.50;92.90;;;;;;5103313;28;20267;-70
2023/02/13 06:08:35;;;;;;;23.50;12.57;;;3.60;92.70;;;;;;5103896;27;20597;-69
2023/02/13 06:11:05;;;;;;;22.23;12.90;;;3.60;92.70;;;;;;5091953;28;20631;-70
2023/02/13 06:13:35;;;;;;;23.23;13.10;;;3.60;92.80;;;;;;5098064;28;20249;-71
2023/02/13 06:16:09;;;;;;;21.92;13.52;;;3.60;92.50;;;;;;5098047;28;20193;-72
2023/02/13 06:18:42;;;;;;;19.55;11.98;;;3.60;92.50;;;;;;5089180;28;20561;-70
2023/02/13 06:21:09;;;;;;;25.17;13.20;;;3.60;92.50;;;;;;5089841;28;20192;-71
2023/02/13 06:23:37;;;;;;;23.35;12.88;;;3.60;92.50;;;;;;5089770;28;20193;-71
2023/02/13 06:26:06;;;;;;;26.35;13.10;;;3.60;92.30;;;;;;5090064;28;20193;-70
2023/02/13 06:28:34;;;;;;;20.58;11.32;;;3.60;92.10;;;;;;5089801;28;20276;-71
2023/02/13 06:31:03;;;;;;;18.92;12.35;;;3.60;92.40;;;;;;5089343;28;20193;-71
2023/02/13 06:33:32;;;;;;;28.90;13.70;;;3.60;92.50;;;;;;5089867;28;20216;-70
2023/02/13 06:35:59;;;;;;;21.48;12.50;;;3.50;92.50;;;;;;5091971;28;20219;-71
2023/02/13 06:38:27;;;;;;;20.52;12.57;;;3.50;92.50;;;;;;5092682;28;20193;-72
2023/02/13 06:41:01;;;;;;;22.70;13.50;;;3.50;92.60;;;;;;5089127;28;20236;-71
2023/02/13 06:43:29;;;;;;;19.63;11.43;;;3.50;92.40;;;;;;5092509;28;20196;-71
2023/02/13 06:45:56;;;;;;;21.80;11.98;;;3.50;92.40;;;;;;5096224;28;20227;-72
2023/02/13 06:48:24;;;;;;;21.15;11.73;;;3.50;92.90;;;;;;5095039;28;20197;-71
2023/02/13 06:50:57;;;;;;;21.60;12.15;;;3.50;93.10;;;;;;5093133;28;20189;-72
2023/02/13 06:53:24;;;;;;;19.92;11.35;;;3.50;92.80;;;;;;5094031;28;20262;-72
2023/02/13 06:55:55;;;;;;;18.25;11.48;;;3.50;92.80;;;;;;5094312;28;20731;-71
2023/02/13 06:58:25;;;;;;;26.42;12.73;;;3.50;92.80;;;;;;5094053;28;20246;-71
2023/02/13 07:00:53;;;;;;;20.52;13.52;;;3.50;92.90;;;;;;5093860;28;20221;-70
2023/02/13 07:03:24;;;;;;;26.83;13.38;;;3.50;93.00;;;;;;5092849;28;20193;-72
2023/02/13 07:05:56;;;;;;;16.85;10.48;;;3.50;93.00;;;;;;5090853;28;20234;-70
2023/02/13 07:08:23;;;;;;;20.45;12.68;;;3.60;92.80;;;;;;5093586;28;20189;-72
2023/02/13 07:10:51;;;;;;;22.02;12.40;;;3.60;92.70;;;;;;5092793;28;20268;-71
2023/02/13 07:13:18;;;;;;;23.48;13.35;;;3.70;92.00;;;;;;5093374;28;20217;-70
2023/02/13 07:15:45;;;;;;;19.20;12.13;;;3.70;91.90;;;;;;5094014;28;20201;-71
2023/02/13 07:18:13;;;;;;;23.42;12.65;;;3.60;92.30;;;;;;5093101;28;20208;-71
2023/02/13 07:20:40;;;;;;;22.65;12.95;;;3.60;92.30;;;;;;5091485;28;20238;-72
2023/02/13 07:23:08;;;;;;;22.52;12.38;;;3.60;92.40;;;;;;5095520;28;20707;-73
2023/02/13 07:25:36;;;;;;;19.98;12.60;;;3.60;92.70;;;;;;5028881;28;20222;-70
2023/02/13 07:28:04;;;;;;;24.20;13.20;;;3.60;92.60;;;;;;5035972;28;20284;-71
2023/02/13 07:30:32;;;;;;;22.83;14.27;;;3.70;92.50;;;;;;5032601;28;20191;-71
2023/02/13 07:33:01;;;;;;;22.35;14.88;;;3.70;92.50;;;;;;5032234;28;20222;-73
2023/02/13 07:35:28;;;;;;;25.23;13.32;;;3.70;92.40;;;;;;5032621;28;20191;-71
2023/02/13 07:37:55;;;;;;;30.77;15.05;;;3.70;92.40;;;;;;5031883;28;20277;-72
2023/02/13 07:40:25;;;;;;;25.40;12.98;;;3.70;92.30;;;;;;5031410;28;20226;-70
2023/02/13 07:42:52;;;;;;;22.77;14.02;;;3.80;92.20;;;;;;5033422;28;20202;-71
2023/02/13 07:45:19;;;;;;;25.30;13.73;;;3.80;92.10;;;;;;5031621;28;20195;-71
2023/02/13 07:47:46;;;;;;;20.92;13.38;;;3.80;91.90;;;;;;5031148;28;20187;-70
2023/02/13 07:50:13;;;;;;;25.10;14.07;;;3.80;91.80;;;;;;5027358;28;20193;-71
2023/02/13 07:52:40;;;;;;;24.02;12.45;;;3.90;91.80;;;;;;5041199;28;20223;-71
2023/02/13 07:55:10;;;;;;;24.40;14.27;;;3.90;91.80;;;;;;5033748;28;20225;-70
2023/02/13 07:57:39;;;;;;;22.85;12.63;;;3.90;91.90;;;;;;5041261;28;20534;-70
2023/02/13 08:00:07;;;;;;;27.23;14.15;;;3.90;91.80;;;;;;5036713;28;20282;-70
2023/02/13 08:02:34;;;;;;;19.88;11.38;;;3.80;92.00;;;;;;5040826;28;20225;-70
2023/02/13 08:05:01;;;;;;;29.08;13.52;;;3.80;92.20;;;;;;5038827;28;20222;-70
2023/02/13 08:07:28;;;;;;;26.10;14.15;;;3.90;92.30;;;;;;5040823;28;20700;-71
2023/02/13 08:12:40;;;;;;;28.55;14.25;;;3.90;92.10;;;;;;5035744;28;20200;-70
2023/02/13 08:15:09;;;;;;;23.50;13.23;;;3.90;91.80;;;;;;5035103;28;20638;-71
2023/02/13 08:17:36;;;;;;;25.05;13.90;;;4.00;92.00;;;;;;5038432;28;20289;-71
2023/02/13 08:20:03;;;;;;;20.85;12.90;;;4.00;91.90;;;;;;5035574;28;20290;-71
2023/02/13 08:22:30;;;;;;;20.13;13.52;;;4.10;91.30;;;;;;5038896;28;20293;-71
2023/02/13 08:24:57;;;;;;;24.27;12.80;;;4.00;91.30;;;;;;5038817;28;20194;-70
2023/02/13 08:27:24;;;;;;;22.42;11.80;;;4.00;91.60;;;;;;5035249;28;20729;-71
2023/02/13 08:29:52;;;;;;;22.27;13.68;;;3.90;91.80;;;;;;5037012;28;20284;-70
2023/02/13 08:32:20;;;;;;;22.45;12.35;;;3.90;91.70;;;;;;5038183;28;20222;-70
2023/02/13 08:34:47;;;;;;;22.30;12.98;;;3.90;91.70;;;;;;5036205;28;20288;-70
2023/02/13 08:37:14;;;;;;;20.52;13.20;;;4.00;91.30;;;;;;5037527;28;20282;-70
2023/02/13 08:39:41;;;;;;;30.45;15.68;;;4.00;91.10;;;;;;5034525;28;20294;-70
2023/02/13 08:42:08;;;;;;;26.98;16.33;;;4.00;91.50;;;;;;5034642;28;20462;-70
2023/02/13 08:44:36;;;;;;;25.05;14.15;;;4.00;91.50;;;;;;5036214;28;20282;-70
2023/02/13 08:47:04;;;;;;;27.42;15.10;;;4.00;91.30;;;;;;5035802;28;21219;-70
2023/02/13 08:49:31;;;;;;;23.65;13.30;;;3.90;91.20;;;;;;5033167;28;20317;-70
2023/02/13 08:51:59;;;;;;;24.88;12.68;;;3.90;91.40;;;;;;5036192;28;20229;-70
2023/02/13 08:54:26;;;;;;;23.48;13.52;;;3.90;91.40;;;;;;5035779;28;20306;-70
2023/02/13 08:56:53;;;;;;;29.85;16.45;;;3.90;91.50;;;;;;5035039;28;20198;-70
2023/02/13 08:59:21;;;;;;;19.77;11.90;;;3.90;91.80;;;;;;5034703;28;20608;-70
2023/02/13 09:01:48;;;;;;;20.55;12.73;;;4.00;91.90;;;;;;5034055;28;20621;-69
2023/02/13 09:04:17;;;;;;;21.38;12.27;;;4.10;91.70;;;;;;5034566;28;20230;-70
2023/02/13 09:06:45;;;;;;;22.50;14.55;;;4.10;91.50;;;;;;5034189;28;20543;-70
2023/02/13 09:09:12;;;;;;;17.33;10.85;;;4.10;91.00;;;;;;5033977;28;20302;-70
2023/02/13 09:11:39;;;;;;;21.65;12.27;;;4.20;90.60;;;;;;5030129;28;20207;-71
2023/02/13 09:14:06;;;;;;;20.20;11.48;;;4.20;91.00;;;;;;5032959;28;20319;-70
2023/02/13 09:16:33;;;;;;;26.10;13.13;;;4.20;90.70;;;;;;5034059;28;20198;-70
2023/02/13 09:19:00;;;;;;;18.55;12.43;;;4.20;90.80;;;;;;5033232;28;20293;-70
2023/02/13 09:21:30;;;;;;;22.08;12.85;;;4.20;90.80;;;;;;5032410;28;20195;-71
2023/02/13 09:23:57;;;;;;;22.38;13.20;;;4.40;90.90;;;;;;5032988;28;20199;-70
2023/02/13 09:26:24;;;;;;;28.40;14.05;;;4.40;90.70;;;;;;5032388;28;20203;-70
2023/02/13 09:28:51;;;;;;;19.88;11.70;;;4.40;90.70;;;;;;5032523;28;20606;-71
2023/02/13 09:31:22;;;;;;;26.17;14.45;;;4.50;89.60;;;;;;5031449;28;20228;-70
2023/02/13 09:33:50;;;;;;;25.17;15.73;;;4.50;89.60;;;;;;5031322;28;20280;-70
2023/02/13 09:36:19;;;;;;;22.27;13.90;;;4.50;90.10;;;;;;5031556;28;20195;-71
2023/02/13 09:38:51;;;;;;;21.58;12.15;;;4.50;90.20;;;;;;5031432;28;20201;-70
2023/02/13 09:41:23;;;;;;;21.23;12.30;;;4.60;90.00;;;;;;5027788;28;20285;-71
2023/02/13 09:43:53;;;;;;;20.00;12.02;;;4.60;89.70;;;;;;5030765;28;20278;-71
2023/02/13 09:46:23;;;;;;;22.15;12.45;;;4.70;89.60;;;;;;5030986;28;20592;-71
2023/02/13 09:48:54;;;;;;;22.33;12.32;;;4.70;89.20;;;;;;5031352;28;20551;-71
2023/02/13 09:51:24;;;;;;;19.75;11.68;;;4.80;89.00;;;;;;5033161;28;20298;-71
2023/02/13 09:53:57;;;;;;;22.60;13.25;;;4.80;89.40;;;;;;5030771;28;20249;-71
2023/02/13 09:56:48;;;;;;;21.77;13.98;;;4.90;88.40;;;;;;5042133;28;20294;-71
2023/02/13 09:59:31;;;;;;;19.83;11.60;;;4.90;88.20;;;;;;5040555;28;20203;-71
2023/02/13 10:02:02;;;;;;;19.98;12.45;;;4.90;87.30;;;;;;5043088;28;20275;-72
2023/02/13 10:04:36;;;;;;;17.20;11.40;;;5.00;87.30;;;;;;5042766;28;20645;-71
2023/02/13 10:07:15;;;;;;;20.17;11.95;;;5.00;87.70;;;;;;5045873;28;20277;-71
2023/02/13 10:09:53;;;;;;;24.25;12.52;;;5.00;88.90;;;;;;5038532;28;20237;-70
2023/02/13 10:12:44;;;;;;;24.58;13.63;;;5.10;87.70;;;;;;5040507;28;20293;-71
2023/02/13 10:15:20;;;;;;;17.83;11.02;;;5.20;86.30;;;;;;5041601;28;20794;-70
2023/02/13 10:17:54;;;;;;;23.08;12.60;;;5.20;86.70;;;;;;5039475;28;20271;-69
2023/02/13 10:20:28;;;;;;;21.02;12.32;;;5.20;86.30;;;;;;5036797;28;20633;-71
2023/02/13 10:23:02;;;;;;;17.65;10.43;;;5.20;85.90;;;;;;5040478;28;20285;-71
2023/02/13 10:25:40;;;;;;;18.50;11.50;;;5.30;85.80;;;;;;5044141;28;20215;-71
2023/02/13 10:28:15;;;;;;;18.73;11.48;;;5.30;85.20;;;;;;5040737;28;20273;-70
2023/02/13 10:30:50;;;;;;;16.55;10.93;;;5.20;84.60;;;;;;5037384;28;20622;-70
2023/02/13 10:33:19;;;;;;;17.33;10.88;;;5.20;85.10;;;;;;5041077;28;20585;-70
2023/02/13 10:35:51;;;;;;;16.50;12.00;;;5.20;85.50;;;;;;5045457;28;20289;-70
2023/02/13 10:38:20;;;;;;;19.15;10.40;;;5.10;85.70;;;;;;5041773;28;20671;-70
2023/02/13 10:41:03;;;;;;;18.63;12.25;;;5.10;86.30;;;;;;5040377;28;20286;-70
2023/02/13 10:43:36;;;;;;;19.50;10.43;;;5.10;86.70;;;;;;5038579;28;20230;-71
2023/02/13 10:46:13;;;;;;;17.98;11.45;;;5.10;86.60;;;;;;5041406;28;20279;-70
2023/02/13 10:49:05;;;;;;;19.40;12.07;;;5.20;86.60;;;;;;5041470;28;20226;-70
2023/02/13 10:51:39;;;;;;;28.52;12.73;;;5.20;85.80;;;;;;5038198;28;20281;-69
2023/02/13 10:54:32;;;;;;;20.60;12.27;;;5.30;84.90;;;;;;5038476;28;20302;-71
2023/02/13 10:57:11;;;;;;;15.52;12.25;;;5.40;85.40;;;;;;5035286;28;20225;-71
2023/02/13 10:59:52;;;;;;;18.80;11.88;;;5.50;85.20;;;;;;5034101;28;20226;-72
2023/02/13 11:02:23;;;;;;;20.38;12.05;;;5.50;85.00;;;;;;5044351;28;20321;-71
2023/02/13 11:04:57;;;;;;;20.92;13.27;;;5.70;84.70;;;;;;5051391;28;20233;-70
2023/02/13 11:07:26;;;;;;;20.45;11.45;;;5.70;84.10;;;;;;5051617;28;20714;-71
2023/02/13 11:09:58;;;;;;;21.40;11.82;;;5.80;83.90;;;;;;5051404;28;20277;-71
2023/02/13 11:12:28;;;;;;;19.60;12.13;;;5.90;83.50;;;;;;5051951;28;20273;-70
2023/02/13 11:14:57;;;;;;;22.75;12.32;;;6.00;82.90;;;;;;5051629;28;20707;-71
2023/02/13 11:17:26;;;;;;;17.75;11.13;;;6.10;83.10;;;;;;5051587;28;20229;-71
2023/02/13 11:19:56;;;;;;;19.85;13.35;;;6.20;82.80;;;;;;5051831;28;20246;-71
2023/02/13 11:22:33;;;;;;;23.13;12.65;;;6.30;82.00;;;;;;5054741;28;20277;-71
2023/02/13 11:25:06;;;;;;;25.30;12.23;;;6.40;82.40;;;;;;5055349;28;20193;-71
2023/02/13 11:27:37;;;;;;;16.83;11.82;;;6.50;82.30;;;;;;5055250;28;20278;-71
2023/02/13 11:30:06;;;;;;;19.70;13.32;;;6.60;81.70;;;;;;5055043;28;20230;-71
2023/02/13 11:32:35;;;;;;;19.05;13.25;;;6.80;80.50;;;;;;5055188;28;20281;-71
2023/02/13 11:35:28;;;;;;;20.13;13.18;;;6.80;79.90;;;;;;5029747;28;20219;-71
2023/02/13 11:38:22;;;;;;;15.63;10.63;;;6.90;79.10;;;;;;5034694;28;20650;-71
2023/02/13 11:40:52;;;;;;;17.67;12.75;;;7.20;79.30;;;;;;5031519;28;20274;-71
2023/02/13 11:43:27;;;;;;;18.65;11.75;;;7.40;78.20;;;;;;5034352;28;20226;-71
2023/02/13 11:46:05;;;;;;;22.55;13.93;;;7.60;76.80;;;;;;5033051;28;20624;-71
2023/02/13 11:48:32;;;;;;;19.70;12.55;;;7.80;75.90;;;;;;5033985;28;20283;-71
2023/02/13 11:51:04;;;;;;;16.42;11.23;;;8.90;79.70;;;;;;5026874;28;20223;-72
2023/02/13 11:53:36;;;;;;;21.02;12.80;;;10.20;74.00;;;;;;5034544;28;20645;-71
2023/02/13 11:56:07;;;;;;;20.05;13.43;;;11.40;69.20;;;;;;5033979;28;20635;-71
2023/02/13 11:58:36;;;;;;;17.50;12.88;;;12.30;62.20;;;;;;5034670;28;20198;-72
2023/02/13 12:01:27;;;;;;;19.17;11.82;;;13.10;58.80;;;;;;5034322;28;20227;-71
2023/02/13 12:04:06;;;;;;;16.80;11.65;;;13.70;56.50;;;;;;5034758;28;20672;-71
2023/02/13 12:06:38;;;;;;;17.05;12.13;;;14.40;54.80;;;;;;5034536;28;20240;-71
2023/02/13 12:09:10;;;;;;;20.60;14.10;;;15.00;50.80;;;;;;5034682;28;20243;-71
2023/02/13 12:11:41;;;;;;;16.90;14.20;;;15.40;49.20;;;;;;5020304;28;20564;-70
2023/02/13 12:14:16;;;;;;;17.77;11.80;;;15.90;47.60;;;;;;5014006;28;20565;-71
2023/02/13 12:16:49;;;;;;;16.90;12.40;;;16.30;46.70;;;;;;5014560;28;20466;-71
2023/02/13 12:19:21;;;;;;;19.73;10.67;;;16.70;45.00;;;;;;5014106;28;20834;-71
2023/02/13 12:22:14;;;;;;;18.70;12.23;;;17.00;44.10;;;;;;5027102;28;20522;-70
2023/02/13 12:25:11;;;;;;;15.17;12.80;;;17.50;42.20;;;;;;5032780;28;20438;-74
2023/02/13 12:27:46;;;;;;;18.63;12.40;;;17.80;40.90;;;;;;5014080;28;20953;-71
2023/02/13 12:30:36;;;;;;;18.37;12.90;;;18.00;40.20;;;;;;5013500;28;21176;-77
2023/02/13 12:33:15;;;;;;;14.47;11.87;;;18.20;39.60;;;;;;5039710;28;20855;-72
2023/02/13 12:35:53;;;;;;;16.00;11.97;;;18.40;38.50;;;;;;5053842;28;20488;-71
2023/02/13 12:38:38;;;;;;;15.33;12.37;;;18.50;38.60;;;;;;5041321;28;20429;-70
2023/02/13 12:41:17;;;;;;;18.73;12.20;;;18.80;37.50;;;;;;5032720;28;20868;-71
2023/02/13 12:44:27;;;;;;;16.90;13.50;;;18.90;37.10;;;;;;5013521;28;20434;-71
2023/02/13 12:47:05;;;;;;;15.70;12.80;;;19.00;36.30;;;;;;5006802;28;20474;-72
2023/02/13 12:50:00;;;;;;;18.77;14.20;;;19.10;35.60;;;;;;5016994;28;20443;-71
2023/02/13 12:52:40;;;;;;;18.87;13.03;;;19.20;35.60;;;;;;5013359;28;20901;-70
2023/02/13 12:55:26;;;;;;;21.43;13.57;;;19.20;35.30;;;;;;5013682;28;20516;-71
2023/02/13 12:58:06;;;;;;;17.00;12.87;;;19.10;35.10;;;;;;5013551;28;20443;-71
2023/02/13 13:00:43;;;;;;;25.43;13.60;;;19.10;34.70;;;;;;5013516;28;20533;-71
2023/02/13 13:03:31;;;;;;;19.77;15.07;;;19.20;35.20;;;;;;5013890;28;20485;-71
2023/02/13 13:06:10;;;;;;;16.87;13.57;;;19.30;34.70;;;;;;5013514;28;20431;-71
2023/02/13 13:09:12;;;;;;;17.50;14.50;;;19.30;34.70;;;;;;5013420;28;20497;-71
2023/02/13 13:12:14;;;;;;;23.80;13.60;;;19.20;34.50;;;;;;5013565;28;20932;-71
2023/02/13 13:14:49;;;;;;;17.43;14.00;;;19.10;34.60;;;;;;4994200;28;20551;-71
2023/02/13 13:17:29;;;;;;;15.70;11.83;;;19.10;34.70;;;;;;5013309;28;20477;-71
2023/02/13 13:20:04;;;;;;;16.93;12.00;;;19.10;34.60;;;;;;5013493;28;20478;-70
2023/02/13 13:22:35;;;;;;;17.23;12.67;;;19.00;34.20;;;;;;5013639;28;20541;-71
2023/02/13 13:25:17;;;;;;;18.87;12.37;;;18.80;34.50;;;;;;5012961;28;20890;-71
2023/02/13 13:27:49;;;;;;;16.33;11.67;;;18.70;34.70;;;;;;5013011;28;20937;-71
2023/02/13 13:30:20;;;;;;;22.30;14.00;;;18.60;34.80;;;;;;5013433;28;20482;-70
2023/02/13 13:32:51;;;;;;;18.50;13.67;;;18.50;35.00;;;;;;5013296;28;20442;-70
2023/02/13 13:35:21;;;;;;;17.17;13.53;;;18.40;35.40;;;;;;5013297;28;20532;-70
2023/02/13 13:38:02;;;;;;;15.73;11.60;;;18.30;35.60;;;;;;5013464;28;20509;-70
2023/02/13 13:40:36;;;;;;;15.23;12.47;;;18.30;35.80;;;;;;5013307;28;20450;-70
2023/02/13 13:43:11;;;;;;;15.87;12.93;;;18.20;35.60;;;;;;5012626;28;20442;-70
2023/02/13 13:45:42;;;;;;;15.67;12.73;;;18.00;35.90;;;;;;5012835;28;20500;-70
2023/02/13 13:48:50;;;;;;;14.90;12.03;;;17.80;36.10;;;;;;5013132;28;20829;-70